Time;durP1;ratioP1;P1;durP2;ratioP2;P2;SDS_P1;SDS_P2;PMS_P1;PMS_P2;Temp;Humidity;BMP_temperature;BMP_pressure;BME280_temperature;BME280_humidity;BME280_pressure;Samples;Min_cycle;Max_cycle;Signal;HPM_P1;HPM_P2
2023/10/30 00:00:09;;;;;;;;;;;;;;;2.37;64.04;99917.66;4884054;29;19935;-74
2023/10/30 00:02:39;;;;;;;;;;;;;;;2.37;64.00;99915.94;4897647;29;20367;-74
2023/10/30 00:05:11;;;;;;;;;;;;;;;2.40;64.24;99931.44;4899292;29;19930;-74
2023/10/30 00:07:37;;;;;;;;;;;;;;;2.35;63.75;99952.69;4881175;29;20045;-74
2023/10/30 00:10:09;;;;;;;;;;;;;;;2.27;63.80;99955.06;4898209;29;20378;-74
2023/10/30 00:12:35;;;;;;;;;;;;;;;2.22;64.19;99957.50;4897112;29;19972;-74
2023/10/30 00:15:04;;;;;;;;;;;;;;;2.22;64.36;99961.78;4883624;29;19930;-74
2023/10/30 00:17:30;;;;;;;;;;;;;;;2.18;64.05;99968.53;4883846;29;19927;-74
2023/10/30 00:19:56;;;;;;;;;;;;;;;2.17;64.25;99965.91;4911149;29;19966;-75
2023/10/30 00:22:24;;;;;;;;;;;;;;;2.15;64.31;99955.59;4908800;29;20025;-74
2023/10/30 00:24:52;;;;;;;;;;;;;;;2.18;64.59;99950.56;4897303;29;20406;-74
2023/10/30 00:27:19;;;;;;;;;;;;;;;2.19;64.57;99954.88;4896235;29;19923;-75
2023/10/30 00:29:48;;;;;;;;;;;;;;;2.18;64.26;99954.81;4893281;29;19928;-74
2023/10/30 00:32:16;;;;;;;;;;;;;;;2.18;64.24;99965.06;4909845;29;19927;-76
2023/10/30 00:34:42;;;;;;;;;;;;;;;2.24;64.69;99952.41;4911029;29;19924;-74
2023/10/30 00:37:12;;;;;;;;;;;;;;;2.04;64.33;99918.47;4884013;29;19927;-73
2023/10/30 00:39:40;;;;;;;;;;;;;;;2.24;64.16;99947.28;4883263;29;19924;-73
2023/10/30 00:42:07;;;;;;;;;;;;;;;2.24;64.34;99943.00;4892563;29;19932;-74
2023/10/30 00:44:33;;;;;;;;;;;;;;;2.25;64.04;99933.59;4868246;29;19923;-73
2023/10/30 00:47:02;;;;;;;;;;;;;;;2.25;64.36;99937.03;4898383;29;19935;-72
2023/10/30 00:49:28;;;;;;;;;;;;;;;2.25;63.88;99936.19;4908661;29;20038;-74
2023/10/30 00:51:57;;;;;;;;;;;;;;;2.25;64.34;99936.19;4896808;29;19948;-73
2023/10/30 00:54:23;;;;;;;;;;;;;;;2.31;64.44;99956.00;4897920;29;20054;-74
2023/10/30 00:56:50;;;;;;;;;;;;;;;2.31;64.40;99967.16;4882791;29;19934;-74
2023/10/30 00:59:15;;;;;;;;;;;;;;;2.33;64.26;99969.75;4897443;29;19990;-73
2023/10/30 01:01:42;;;;;;;;;;;;;;;2.30;64.15;99970.56;4881902;29;19923;-74
2023/10/30 01:04:10;;;;;;;;;;;;;;;2.32;64.42;99955.19;4883212;29;19928;-73
2023/10/30 01:06:39;;;;;;;;;;;;;;;2.34;64.19;99963.81;4882519;29;19931;-75
2023/10/30 01:09:05;;;;;;;;;;;;;;;2.36;64.42;99955.28;4896102;29;19927;-74
2023/10/30 01:11:34;;;;;;;;;;;;;;;2.36;64.04;99957.00;4908667;29;19965;-74
2023/10/30 01:14:04;;;;;;;;;;;;;;;2.30;64.17;99942.31;4883475;29;19923;-74
2023/10/30 01:16:33;;;;;;;;;;;;;;;2.28;64.19;99936.25;4897370;29;19957;-76
2023/10/30 01:19:04;;;;;;;;;;;;;;;2.31;64.68;99940.59;4917335;29;19923;-75
2023/10/30 01:21:30;;;;;;;;;;;;;;;2.32;64.32;99943.19;4902549;29;19934;-77
2023/10/30 01:23:58;;;;;;;;;;;;;;;2.29;64.37;99942.25;4900507;29;19991;-75
2023/10/30 01:26:24;;;;;;;;;;;;;;;2.30;64.28;99942.31;4900363;29;19923;-74
2023/10/30 01:28:50;;;;;;;;;;;;;;;2.25;64.48;99936.19;4914651;29;20295;-75
2023/10/30 01:31:19;;;;;;;;;;;;;;;2.25;64.45;99928.47;4899494;29;19997;-74
2023/10/30 01:33:45;;;;;;;;;;;;;;;2.25;64.56;99925.91;4884445;29;19976;-74
2023/10/30 01:36:12;;;;;;;;;;;;;;;2.23;64.62;99925.84;4887783;29;20007;-78
2023/10/30 01:38:41;;;;;;;;;;;;;;;2.22;64.74;99910.41;4887606;29;19962;-74
2023/10/30 01:41:10;;;;;;;;;;;;;;;2.24;64.58;99914.75;4901342;29;20015;-76
2023/10/30 01:43:35;;;;;;;;;;;;;;;2.28;64.72;99905.44;4898524;29;20383;-76
2023/10/30 01:46:01;;;;;;;;;;;;;;;2.31;64.76;99925.19;4915597;29;19975;-75
2023/10/30 01:48:29;;;;;;;;;;;;;;;2.30;64.79;99915.75;4887094;29;19923;-77
2023/10/30 01:50:55;;;;;;;;;;;;;;;2.31;64.50;99908.09;4882066;29;19934;-75
2023/10/30 01:53:21;;;;;;;;;;;;;;;2.29;64.87;99917.47;4898220;29;19924;-75
2023/10/30 01:55:49;;;;;;;;;;;;;;;2.28;64.61;99936.25;4886516;29;19942;-77
2023/10/30 01:58:17;;;;;;;;;;;;;;;2.18;64.69;99945.41;4910537;29;19924;-74
2023/10/30 02:00:45;;;;;;;;;;;;;;;2.09;64.58;99940.91;4884422;29;19927;-75
2023/10/30 02:03:14;;;;;;;;;;;;;;;2.08;64.84;99923.75;4901922;29;19930;-74
2023/10/30 02:05:42;;;;;;;;;;;;;;;2.10;64.84;99944.31;4886962;29;19928;-75
2023/10/30 02:08:12;;;;;;;;;;;;;;;2.09;64.99;99956.31;4895617;29;19950;-74
2023/10/30 02:10:39;;;;;;;;;;;;;;;2.06;64.87;99955.31;4899698;29;19934;-76
2023/10/30 02:13:07;;;;;;;;;;;;;;;2.09;64.84;99942.59;4866522;29;19923;-75
2023/10/30 02:15:35;;;;;;;;;;;;;;;2.06;64.73;99924.53;4886016;29;19987;-75
2023/10/30 02:18:01;;;;;;;;;;;;;;;2.10;65.03;99914.38;4900566;29;20469;-73
2023/10/30 02:20:50;;;;;;;;;;;;;;;2.12;64.38;99904.16;4888714;29;19990;-73
2023/10/30 02:23:16;;;;;;;;;;;;;;;2.13;65.19;99890.50;4898570;29;19962;-74
2023/10/30 02:25:42;;;;;;;;;;;;;;;2.16;65.19;99905.09;4885484;29;20018;-75
2023/10/30 02:28:08;;;;;;;;;;;;;;;2.18;64.98;99899.19;4896496;29;19927;-76
2023/10/30 02:30:36;;;;;;;;;;;;;;;2.20;64.99;99896.66;4883304;29;20026;-75
2023/10/30 02:33:02;;;;;;;;;;;;;;;2.18;64.90;99896.63;4900208;29;19953;-74
2023/10/30 02:35:31;;;;;;;;;;;;;;;2.13;64.59;99925.56;4900160;29;19934;-75
2023/10/30 02:37:57;;;;;;;;;;;;;;;2.04;64.64;99962.09;4897528;29;19934;-76
2023/10/30 02:40:23;;;;;;;;;;;;;;;2.04;64.87;99950.16;4899809;29;19971;-76
2023/10/30 02:42:49;;;;;;;;;;;;;;;2.04;65.01;99887.66;4882904;29;19923;-75
2023/10/30 02:45:15;;;;;;;;;;;;;;;2.00;64.99;99871.31;4897151;29;19946;-75
2023/10/30 02:47:48;;;;;;;;;;;;;;;1.95;64.95;99908.81;4900292;29;20014;-76
2023/10/30 02:50:17;;;;;;;;;;;;;;;1.99;65.09;99918.34;4902436;29;19962;-74
2023/10/30 02:52:44;;;;;;;;;;;;;;;2.04;64.83;99910.78;4912263;29;19927;-75
2023/10/30 02:55:10;;;;;;;;;;;;;;;2.10;65.38;99924.63;4884183;29;19923;-74
2023/10/30 02:57:41;;;;;;;;;;;;;;;2.16;65.10;99947.06;4867088;29;19930;-74
2023/10/30 03:00:10;;;;;;;;;;;;;;;2.19;65.20;99936.88;4884686;29;19923;-75
2023/10/30 03:02:38;;;;;;;;;;;;;;;2.25;64.89;99931.03;4912170;29;19975;-74
2023/10/30 03:05:09;;;;;;;;;;;;;;;2.29;64.88;99932.88;4899958;29;19923;-75
2023/10/30 03:07:36;;;;;;;;;;;;;;;2.22;65.01;99924.09;4899214;29;19935;-76
2023/10/30 03:10:09;;;;;;;;;;;;;;;2.20;65.08;99922.34;4900545;29;19931;-75
2023/10/30 03:12:40;;;;;;;;;;;;;;;2.17;65.13;99928.28;4901117;29;19923;-79
2023/10/30 03:15:07;;;;;;;;;;;;;;;2.20;65.42;99948.00;4901689;29;19924;-79
2023/10/30 03:17:32;;;;;;;;;;;;;;;2.23;64.71;99960.94;4887193;29;19930;-78
2023/10/30 03:20:05;;;;;;;;;;;;;;;2.29;65.07;99952.53;4900651;29;19930;-75
2023/10/30 03:22:31;;;;;;;;;;;;;;;2.31;64.67;99931.22;4881110;29;20213;-75
2023/10/30 03:24:57;;;;;;;;;;;;;;;2.24;64.94;99921.59;4899654;29;20277;-75
2023/10/30 03:27:23;;;;;;;;;;;;;;;2.06;64.41;99930.53;4899228;29;19951;-77
2023/10/30 03:29:52;;;;;;;;;;;;;;;2.03;64.93;99929.56;4910308;29;20007;-75
2023/10/30 03:32:21;;;;;;;;;;;;;;;2.03;65.39;99942.41;4900926;29;19962;-75
2023/10/30 03:34:50;;;;;;;;;;;;;;;1.95;65.02;99943.06;4901413;29;19939;-74
2023/10/30 03:37:21;;;;;;;;;;;;;;;2.00;65.29;99950.00;4902376;29;19975;-77
2023/10/30 03:40:00;;;;;;;;;;;;;;;2.00;65.11;99955.16;4903444;29;19935;-74
2023/10/30 03:42:36;;;;;;;;;;;;;;;1.94;65.12;99958.41;4870723;29;19928;-78
2023/10/30 03:45:02;;;;;;;;;;;;;;;1.94;64.98;99967.00;4881216;29;19924;-75
2023/10/30 03:47:37;;;;;;;;;;;;;;;1.90;65.42;99978.00;4863454;29;19973;-75
2023/10/30 03:50:03;;;;;;;;;;;;;;;1.93;65.60;99990.94;4862732;29;19932;-75
2023/10/30 03:52:34;;;;;;;;;;;;;;;2.02;65.67;100013.44;4856686;29;20023;-75
2023/10/30 03:55:04;;;;;;;;;;;;;;;2.10;65.62;100013.63;4863531;29;19924;-74
2023/10/30 03:57:31;;;;;;;;;;;;;;;2.16;65.51;100006.13;4848819;29;20019;-75
2023/10/30 04:00:09;;;;;;;;;;;;;;;2.23;65.50;99996.88;4863635;29;19975;-75
2023/10/30 04:02:41;;;;;;;;;;;;;;;2.24;65.50;99984.06;4876852;29;19924;-76
2023/10/30 04:05:08;;;;;;;;;;;;;;;2.26;65.34;99995.28;4862634;29;19924;-75
2023/10/30 04:07:38;;;;;;;;;;;;;;;2.26;65.26;99979.00;4847373;29;20311;-75
2023/10/30 04:10:04;;;;;;;;;;;;;;;2.22;64.51;99966.91;4861076;29;20554;-73
2023/10/30 04:12:30;;;;;;;;;;;;;;;2.11;64.50;99962.31;4860021;29;19935;-74
2023/10/30 04:15:04;;;;;;;;;;;;;;;2.09;65.31;99940.91;4864940;29;19924;-75
2023/10/30 04:17:30;;;;;;;;;;;;;;;2.16;65.17;99925.63;4877398;29;20409;-73
2023/10/30 04:19:56;;;;;;;;;;;;;;;2.19;65.06;99906.06;4876516;29;20367;-75
2023/10/30 04:22:22;;;;;;;;;;;;;;;2.24;65.73;99891.63;4877138;29;19934;-75
2023/10/30 04:24:47;;;;;;;;;;;;;;;2.22;64.90;99895.84;4861548;29;19924;-76
2023/10/30 04:27:13;;;;;;;;;;;;;;;2.05;64.79;99900.56;4862262;29;19931;-76
2023/10/30 04:32:36;;;;;;;;;;;;;;;1.93;64.87;99888.25;4861974;29;19935;-75
2023/10/30 04:35:02;;;;;;;;;;;;;;;1.94;65.58;99887.44;4847110;29;19924;-76
2023/10/30 04:37:32;;;;;;;;;;;;;;;1.82;65.43;99883.66;4845376;29;19928;-75
2023/10/30 04:39:58;;;;;;;;;;;;;;;1.80;65.91;99886.16;4877983;29;19931;-74
2023/10/30 04:42:24;;;;;;;;;;;;;;;1.83;65.94;99877.69;4862343;29;19946;-75
2023/10/30 04:44:50;;;;;;;;;;;;;;;1.77;65.44;99871.56;4877640;29;19924;-73
2023/10/30 04:47:21;;;;;;;;;;;;;;;1.68;65.88;99873.84;4863540;29;19967;-73
2023/10/30 04:49:47;;;;;;;;;;;;;;;1.54;65.90;99882.84;4862840;29;19928;-73
2023/10/30 04:52:16;;;;;;;;;;;;;;;1.48;66.23;99874.16;4860510;29;20442;-72
2023/10/30 04:54:50;;;;;;;;;;;;;;;1.52;66.04;99875.13;4879035;29;20395;-72
2023/10/30 04:57:18;;;;;;;;;;;;;;;1.38;66.36;99868.72;4848923;29;20034;-72
2023/10/30 04:59:45;;;;;;;;;;;;;;;1.32;66.37;99871.97;4866578;29;20393;-72
2023/10/30 05:02:11;;;;;;;;;;;;;;;1.28;66.35;99875.25;4865214;29;20049;-72
2023/10/30 05:04:40;;;;;;;;;;;;;;;1.24;66.67;99869.19;4865972;29;20403;-74
2023/10/30 05:07:08;;;;;;;;;;;;;;;1.13;67.07;99871.44;4880018;29;19931;-75
2023/10/30 05:09:37;;;;;;;;;;;;;;;1.08;67.44;99867.84;4881420;29;19928;-75
2023/10/30 05:12:07;;;;;;;;;;;;;;;1.04;66.83;99881.38;4865553;29;19948;-75
2023/10/30 05:14:36;;;;;;;;;;;;;;;1.00;67.74;99882.09;4857363;29;19924;-71
2023/10/30 05:17:05;;;;;;;;;;;;;;;0.99;67.62;99881.25;4852159;29;19924;-72
2023/10/30 05:19:40;;;;;;;;;;;;;;;0.92;67.40;99875.88;4864995;29;19928;-72
2023/10/30 05:22:06;;;;;;;;;;;;;;;1.00;68.15;99869.28;4865115;29;20004;-73
2023/10/30 05:24:32;;;;;;;;;;;;;;;1.01;67.84;99866.78;4849948;29;19928;-72
2023/10/30 05:27:04;;;;;;;;;;;;;;;0.97;68.06;99861.53;4880710;29;19955;-73
2023/10/30 05:29:33;;;;;;;;;;;;;;;0.90;68.06;99848.53;4879574;29;20010;-71
2023/10/30 05:32:07;;;;;;;;;;;;;;;0.86;67.63;99851.81;4850108;29;19972;-72
2023/10/30 05:34:36;;;;;;;;;;;;;;;0.87;67.80;99857.81;4866237;29;19931;-70
2023/10/30 05:37:29;;;;;;;;;;;;;;;0.89;68.43;99846.78;4868309;29;19924;-74
2023/10/30 05:39:55;;;;;;;;;;;;;;;0.86;67.92;99820.19;4865779;29;19924;-73
2023/10/30 05:42:23;;;;;;;;;;;;;;;0.85;68.21;99806.50;4861239;29;19992;-77
2023/10/30 05:44:51;;;;;;;;;;;;;;;0.98;68.40;99806.88;4832490;29;19929;-73
2023/10/30 05:47:18;;;;;;;;;;;;;;;0.97;67.96;99798.31;4862159;29;19932;-73
2023/10/30 05:49:45;;;;;;;;;;;;;;;0.95;68.46;99802.53;4862661;29;20008;-78
2023/10/30 05:52:11;;;;;;;;;;;;;;;0.95;68.98;99806.78;4864394;29;19931;-70
2023/10/30 05:54:46;;;;;;;;;;;;;;;0.86;68.60;99797.13;4833254;29;19924;-71
2023/10/30 05:57:23;;;;;;;;;;;;;;;0.89;68.93;99790.41;4865326;29;19925;-71
2023/10/30 05:59:53;;;;;;;;;;;;;;;0.92;69.54;99776.81;4878338;29;19929;-71
2023/10/30 06:02:19;;;;;;;;;;;;;;;0.95;69.07;99773.47;4836763;29;19988;-77
2023/10/30 06:04:48;;;;;;;;;;;;;;;1.00;69.54;99771.91;4870039;29;19995;-72
2023/10/30 06:07:41;;;;;;;;;;;;;;;1.01;69.30;99765.94;4825244;29;19924;-77
2023/10/30 06:10:21;;;;;;;;;;;;;;;;;;;;;
2023/10/30 06:12:51;;;;;;;;;;;;;;;0.96;69.34;99764.97;4835744;29;19951;-71
2023/10/30 06:15:17;;;;;;;;;;;;;;;0.90;69.64;99753.72;4861851;29;19924;-72
2023/10/30 06:17:49;;;;;;;;;;;;;;;0.85;69.87;99755.25;4863948;29;19924;-73
2023/10/30 06:20:18;;;;;;;;;;;;;;;0.88;69.82;99749.38;4864918;29;19976;-74
2023/10/30 06:22:45;;;;;;;;;;;;;;;0.85;69.80;99721.94;4879493;29;19928;-71
2023/10/30 06:25:25;;;;;;;;;;;;;;;0.93;70.34;99731.56;4863510;29;19924;-75
2023/10/30 06:27:50;;;;;;;;;;;;;;;0.96;69.98;99729.94;4865196;29;19925;-70
2023/10/30 06:30:17;;;;;;;;;;;;;;;0.94;70.24;99720.50;4833977;29;19948;-73
2023/10/30 06:32:44;;;;;;;;;;;;;;;0.94;70.70;99715.38;4835549;29;19931;-72
2023/10/30 06:35:10;;;;;;;;;;;;;;;0.92;69.97;99696.50;4848564;29;19935;-71
2023/10/30 06:37:36;;;;;;;;;;;;;;;0.87;69.92;99704.94;4849015;29;19924;-73
2023/10/30 06:40:12;;;;;;;;;;;;;;;0.80;70.13;99695.31;4842233;29;19925;-73
2023/10/30 06:43:15;;;;;;;;;;;;;;;0.86;70.34;99708.31;4867489;29;19948;-74
2023/10/30 06:45:40;;;;;;;;;;;;;;;0.74;70.24;99697.72;4867329;29;19931;-70
2023/10/30 06:48:07;;;;;;;;;;;;;;;0.81;71.05;99684.25;4882242;29;19983;-71
2023/10/30 06:50:33;;;;;;;;;;;;;;;0.80;70.29;99676.53;4867119;29;19968;-72
2023/10/30 06:52:59;;;;;;;;;;;;;;;0.77;71.30;99679.88;4883727;29;19905;-73
2023/10/30 06:55:26;;;;;;;;;;;;;;;0.78;71.15;99679.03;4866196;29;19931;-74
2023/10/30 06:58:04;;;;;;;;;;;;;;;0.81;71.04;99661.19;4887309;29;20007;-75
2023/10/30 07:00:30;;;;;;;;;;;;;;;0.82;70.66;99657.81;4867057;29;19986;-76
2023/10/30 07:03:02;;;;;;;;;;;;;;;0.79;70.66;99665.41;4867427;29;19924;-73
2023/10/30 07:05:46;;;;;;;;;;;;;;;0.77;72.16;99649.16;4883428;29;20202;-72
2023/10/30 07:08:12;;;;;;;;;;;;;;;0.75;71.48;99643.09;4853283;29;20030;-76
2023/10/30 07:10:39;;;;;;;;;;;;;;;0.75;71.62;99640.56;4882499;29;19960;-72
2023/10/30 07:13:13;;;;;;;;;;;;;;;0.76;71.48;99639.72;4883223;29;19924;-72
2023/10/30 07:15:42;;;;;;;;;;;;;;;0.67;72.09;99624.09;4848354;29;19931;-76
2023/10/30 07:18:08;;;;;;;;;;;;;;;0.61;71.97;99614.53;4871146;29;19924;-78
2023/10/30 07:20:37;;;;;;;;;;;;;;;0.74;72.25;99613.19;4868185;29;19952;-73
2023/10/30 07:23:02;;;;;;;;;;;;;;;0.74;72.15;99610.63;4864508;29;20021;-74
2023/10/30 07:25:43;;;;;;;;;;;;;;;0.67;72.35;99599.31;4868258;29;20019;-73
2023/10/30 07:28:13;;;;;;;;;;;;;;;0.63;72.41;99601.75;4882666;29;19932;-75
2023/10/30 07:30:50;;;;;;;;;;;;;;;0.57;72.37;99580.28;4833937;29;19932;-73
2023/10/30 07:33:15;;;;;;;;;;;;;;;0.64;72.76;99578.78;4864111;29;19931;-74
2023/10/30 07:35:43;;;;;;;;;;;;;;;0.65;72.65;99584.75;4884282;29;19925;-74
2023/10/30 07:38:13;;;;;;;;;;;;;;;0.66;73.24;99586.50;4866603;29;19924;-76
2023/10/30 07:40:42;;;;;;;;;;;;;;;0.67;73.01;99590.78;4874017;29;19932;-74
2023/10/30 07:43:08;;;;;;;;;;;;;;;0.67;72.98;99595.91;4815244;29;19924;-70
2023/10/30 07:45:39;;;;;;;;;;;;;;;0.60;73.56;99590.59;4862741;29;19925;-70
2023/10/30 07:48:06;;;;;;;;;;;;;;;0.54;72.79;99577.66;4842299;29;19928;-69
2023/10/30 07:50:40;;;;;;;;;;;;;;;0.52;73.53;99576.75;4827194;29;20405;-69
2023/10/30 07:53:09;;;;;;;;;;;;;;;0.59;73.98;99578.63;4842479;29;19947;-74
2023/10/30 07:55:38;;;;;;;;;;;;;;;0.70;73.94;99589.16;4860197;29;19928;-71
2023/10/30 07:58:12;;;;;;;;;;;;;;;0.79;73.75;99583.41;4862725;29;20012;-71
2023/10/30 08:00:41;;;;;;;;;;;;;;;0.69;74.25;99576.34;4863087;29;19925;-72
2023/10/30 08:03:08;;;;;;;;;;;;;;;0.70;74.27;99575.50;4849324;29;19972;-70
2023/10/30 08:05:33;;;;;;;;;;;;;;;0.64;73.85;99580.44;4832218;29;19924;-72
2023/10/30 08:08:02;;;;;;;;;;;;;;;0.66;74.10;99571.13;4841784;29;19924;-74
2023/10/30 08:10:34;;;;;;;;;;;;;;;0.70;75.11;99570.38;4829391;29;19928;-70
2023/10/30 08:13:07;;;;;;;;;;;;;;;0.80;74.08;99556.97;4831656;29;19931;-73
2023/10/30 08:15:36;;;;;;;;;;;;;;;0.86;74.86;99559.72;4858637;29;19962;-73
2023/10/30 08:18:05;;;;;;;;;;;;;;;0.88;75.13;99559.78;4846469;29;19932;-74
2023/10/30 08:20:41;;;;;;;;;;;;;;;0.96;74.58;99568.50;4861122;29;19980;-72
2023/10/30 08:23:10;;;;;;;;;;;;;;;0.86;74.77;99558.88;4835688;29;19925;-74
2023/10/30 08:25:37;;;;;;;;;;;;;;;0.77;75.40;99554.38;4847325;29;19952;-70
2023/10/30 08:28:03;;;;;;;;;;;;;;;0.72;75.08;99543.13;4844659;29;19924;-70
2023/10/30 08:30:39;;;;;;;;;;;;;;;0.73;75.54;99547.41;4830321;29;19928;-70
2023/10/30 08:33:05;;;;;;;;;;;;;;;0.77;75.04;99540.66;4859018;29;19935;-77
2023/10/30 08:35:34;;;;;;;;;;;;;;;0.73;75.23;99522.66;4851825;29;19932;-70
2023/10/30 08:38:00;;;;;;;;;;;;;;;0.81;75.73;99517.72;4847504;29;19928;-70
2023/10/30 08:40:27;;;;;;;;;;;;;;;0.82;75.96;99516.91;4866455;29;19912;-70
2023/10/30 08:42:53;;;;;;;;;;;;;;;0.75;75.33;99520.16;4862396;29;19924;-73
2023/10/30 08:45:22;;;;;;;;;;;;;;;0.74;75.76;99509.03;4841537;29;19924;-72
2023/10/30 08:47:48;;;;;;;;;;;;;;;0.86;75.99;99499.94;4845565;29;19964;-70
2023/10/30 08:50:14;;;;;;;;;;;;;;;0.95;76.22;99500.16;4844761;29;19932;-70
2023/10/30 08:52:41;;;;;;;;;;;;;;;0.86;75.54;99493.09;4845448;29;19924;-70
2023/10/30 08:55:19;;;;;;;;;;;;;;;0.79;75.85;99480.94;4854603;29;20029;-70
2023/10/30 08:57:45;;;;;;;;;;;;;;;0.80;76.02;99469.03;4831259;29;19935;-70
2023/10/30 09:00:16;;;;;;;;;;;;;;;0.76;75.81;99445.03;4846344;29;20306;-70
2023/10/30 09:02:43;;;;;;;;;;;;;;;0.75;75.90;99448.44;4844650;29;19947;-70
2023/10/30 09:05:13;;;;;;;;;;;;;;;0.80;76.62;99457.06;4844739;29;19925;-70
2023/10/30 09:07:39;;;;;;;;;;;;;;;0.93;77.28;99445.44;4846636;29;19931;-69
2023/10/30 09:10:05;;;;;;;;;;;;;;;0.94;77.37;99421.53;4861620;29;19935;-69
2023/10/30 09:12:34;;;;;;;;;;;;;;;1.04;76.79;99435.44;4861038;29;19924;-72
2023/10/30 09:15:01;;;;;;;;;;;;;;;1.04;76.89;99420.94;4863338;29;19956;-71
2023/10/30 09:17:26;;;;;;;;;;;;;;;1.04;77.09;99414.94;4846327;29;19924;-73
2023/10/30 09:19:52;;;;;;;;;;;;;;;1.06;77.29;99410.72;4862641;29;19924;-72
2023/10/30 09:22:18;;;;;;;;;;;;;;;1.04;76.99;99392.75;4844208;29;19974;-72
2023/10/30 09:24:45;;;;;;;;;;;;;;;1.19;77.52;99389.69;4844692;29;20718;-70
2023/10/30 09:27:13;;;;;;;;;;;;;;;1.29;77.73;99415.50;4845835;29;19992;-70
2023/10/30 09:29:42;;;;;;;;;;;;;;;1.23;77.15;99400.84;4860174;29;19935;-72
2023/10/30 09:32:09;;;;;;;;;;;;;;;1.20;77.75;99388.84;4831006;29;19924;-73
2023/10/30 09:34:40;;;;;;;;;;;;;;;1.30;77.82;99399.28;4860781;29;20536;-73
2023/10/30 09:37:07;;;;;;;;;;;;;;;1.31;77.90;99375.38;4848107;29;19976;-72
2023/10/30 09:39:32;;;;;;;;;;;;;;;1.32;77.78;99374.56;4860391;29;20313;-70
2023/10/30 09:42:02;;;;;;;;;;;;;;;1.38;77.88;99354.19;4853205;29;19928;-68
2023/10/30 09:44:30;;;;;;;;;;;;;;;1.47;77.75;99343.25;4862441;29;19955;-69
2023/10/30 09:46:59;;;;;;;;;;;;;;;1.54;77.52;99341.66;4831616;29;19928;-70
2023/10/30 09:49:28;;;;;;;;;;;;;;;1.39;77.04;99340.53;4863238;29;19980;-70
2023/10/30 09:51:55;;;;;;;;;;;;;;;1.32;77.76;99333.53;4848412;29;19954;-70
2023/10/30 09:54:21;;;;;;;;;;;;;;;1.28;77.82;99318.91;4855163;29;19924;-69
2023/10/30 09:56:49;;;;;;;;;;;;;;;1.29;78.10;99300.13;4843265;29;19949;-69
2023/10/30 09:59:17;;;;;;;;;;;;;;;1.35;77.89;99296.00;4852296;29;19925;-69
2023/10/30 10:01:49;;;;;;;;;;;;;;;1.35;78.03;99315.66;4845627;29;19935;-71
2023/10/30 10:04:18;;;;;;;;;;;;;;;1.36;77.74;99302.00;4851545;29;20411;-71
2023/10/30 10:06:59;;;;;;;;;;;;;;;1.43;78.04;99283.34;4841365;29;19997;-70
2023/10/30 10:09:31;;;;;;;;;;;;;;;1.43;77.44;99244.91;4852788;29;19996;-70
2023/10/30 10:11:58;;;;;;;;;;;;;;;1.38;78.12;99220.84;4868355;29;19927;-70
2023/10/30 10:14:24;;;;;;;;;;;;;;;1.38;78.12;99202.91;4853403;29;19924;-69
2023/10/30 10:16:50;;;;;;;;;;;;;;;1.47;78.56;99209.91;4852852;29;20573;-70
2023/10/30 10:19:19;;;;;;;;;;;;;;;1.45;78.02;99198.75;4851285;29;19924;-70
2023/10/30 10:21:49;;;;;;;;;;;;;;;1.44;78.38;99215.81;4872687;29;20434;-70
2023/10/30 10:24:44;;;;;;;;;;;;;;;1.51;78.16;99196.31;4834251;29;19936;-70
2023/10/30 10:27:13;;;;;;;;;;;;;;;1.58;78.52;99163.94;4834047;29;19932;-70
2023/10/30 10:29:43;;;;;;;;;;;;;;;1.62;78.34;99197.34;4850044;29;19931;-71
2023/10/30 10:32:12;;;;;;;;;;;;;;;1.61;78.06;99158.88;4866234;29;20417;-70
2023/10/30 10:34:37;;;;;;;;;;;;;;;1.69;78.31;99149.56;4869210;29;19924;-71
2023/10/30 10:37:12;;;;;;;;;;;;;;;1.73;78.45;99184.72;4850410;29;19980;-72
2023/10/30 10:39:56;;;;;;;;;;;;;;;1.78;78.31;99179.66;4836465;29;19925;-70
2023/10/30 10:42:26;;;;;;;;;;;;;;;1.76;78.17;99207.00;4863214;29;20100;-70
2023/10/30 10:44:53;;;;;;;;;;;;;;;1.78;78.62;99218.13;4848301;29;19924;-70
2023/10/30 10:47:19;;;;;;;;;;;;;;;1.82;78.63;99211.38;4863045;29;19987;-69
2023/10/30 10:49:46;;;;;;;;;;;;;;;1.88;78.65;99196.06;4849431;29;19936;-71
2023/10/30 10:52:38;;;;;;;;;;;;;;;1.93;78.28;99200.44;4848674;29;19956;-70
2023/10/30 10:55:15;;;;;;;;;;;;;;;2.00;78.67;99180.88;4834307;29;19959;-71
2023/10/30 10:58:12;;;;;;;;;;;;;;;2.08;78.51;99181.88;4833055;29;20047;-70
2023/10/30 11:00:48;;;;;;;;;;;;;;;2.06;78.11;99169.84;4833750;29;19928;-71
2023/10/30 11:03:22;;;;;;;;;;;;;;;2.06;78.30;99162.13;4848440;29;19924;-70
2023/10/30 11:09:24;;;;;;;;;;;;;;;2.15;78.45;99153.72;4831446;29;19978;-73
2023/10/30 11:12:19;;;;;;;;;;;;;;;;;;;;;
2023/10/30 11:15:12;;;;;;;;;;;;;;;2.18;78.06;99133.22;4833750;29;19928;-70
2023/10/30 11:21:25;;;;;;;;;;;;;;;2.24;78.27;99108.50;4851195;29;20164;-71
2023/10/30 11:24:03;;;;;;;;;;;;;;;2.22;78.58;99101.63;4847499;29;19928;-71
2023/10/30 11:27:18;;;;;;;;;;;;;;;2.18;78.55;99089.56;4850182;29;19973;-76
2023/10/30 11:30:01;;;;;;;;;;;;;;;2.24;78.62;99081.97;4834557;29;19946;-76
2023/10/30 11:32:47;;;;;;;;;;;;;;;;;;;;;
2023/10/30 11:35:13;;;;;;;;;;;;;;;2.28;78.54;99047.78;4847238;29;19910;-71
2023/10/30 11:37:40;;;;;;;;;;;;;;;2.29;78.61;99039.25;4851722;29;19988;-73
2023/10/30 11:40:14;;;;;;;;;;;;;;;2.32;78.59;99029.00;4849224;29;19924;-71
2023/10/30 11:42:47;;;;;;;;;;;;;;;2.35;78.54;99025.63;4881666;29;19928;-76
2023/10/30 11:45:23;;;;;;;;;;;;;;;2.31;78.25;99041.81;4871002;29;19939;-74
2023/10/30 11:48:05;;;;;;;;;;;;;;;2.35;78.81;99039.31;4881253;29;20391;-72
2023/10/30 11:50:47;;;;;;;;;;;;;;;2.46;78.83;99054.84;4851259;29;19932;-79
2023/10/30 11:53:17;;;;;;;;;;;;;;;2.56;78.69;99068.66;4873874;29;19928;-79
2023/10/30 11:58:43;;;;;;;;;;;;;;;2.70;78.91;99079.97;4867778;29;19955;-76
2023/10/30 12:01:23;;;;;;;;;;;;;;;2.79;78.89;99060.34;4851934;29;19910;-78
2023/10/30 12:03:49;;;;;;;;;;;;;;;2.80;78.67;99050.09;4871291;29;19924;-77
2023/10/30 12:06:26;;;;;;;;;;;;;;;2.77;78.38;99046.63;4887357;29;19972;-76
2023/10/30 12:09:08;;;;;;;;;;;;;;;2.81;78.79;99045.81;4875065;29;19947;-79
2023/10/30 12:11:37;;;;;;;;;;;;;;;2.88;78.72;99065.59;4870199;29;19932;-76
2023/10/30 12:14:06;;;;;;;;;;;;;;;2.97;78.38;99040.00;4859043;29;19971;-78
2023/10/30 12:16:38;;;;;;;;;;;;;;;3.04;78.87;99063.16;4886803;29;19982;-75
2023/10/30 12:19:04;;;;;;;;;;;;;;;3.13;78.92;98997.28;4870172;29;19928;-78
2023/10/30 12:21:31;;;;;;;;;;;;;;;3.09;78.21;99018.66;4872028;29;19924;-74
2023/10/30 12:23:57;;;;;;;;;;;;;;;3.11;78.28;99010.97;4874858;29;19932;-77
2023/10/30 12:26:33;;;;;;;;;;;;;;;3.07;78.18;99009.22;4878548;29;19931;-79
2023/10/30 12:29:01;;;;;;;;;;;;;;;3.13;78.56;98999.00;4874064;29;20058;-80
2023/10/30 12:31:55;;;;;;;;;;;;;;;3.19;78.65;99014.50;4885885;29;19967;-76
2023/10/30 12:34:32;;;;;;;;;;;;;;;3.26;78.31;99010.25;4854891;29;19952;-78
2023/10/30 12:37:24;;;;;;;;;;;;;;;3.41;78.64;99046.38;4852725;29;19956;-83
2023/10/30 12:40:04;;;;;;;;;;;;;;;3.55;78.76;99046.47;4873734;29;19928;-84
2023/10/30 12:42:35;;;;;;;;;;;;;;;3.74;79.11;99070.66;4860249;29;20019;-84
2023/10/30 12:45:27;;;;;;;;;;;;;;;3.92;78.94;99059.59;4889011;29;19930;-80
2023/10/30 12:47:53;;;;;;;;;;;;;;;4.07;78.76;99045.94;4848633;29;20399;-80
2023/10/30 12:50:19;;;;;;;;;;;;;;;4.19;78.72;99032.28;4870040;29;19928;-81
2023/10/30 12:52:57;;;;;;;;;;;;;;;4.29;78.83;99033.19;4864774;29;20472;-84
2023/10/30 12:55:23;;;;;;;;;;;;;;;4.29;78.09;99022.03;4865905;29;20036;-78
2023/10/30 12:57:54;;;;;;;;;;;;;;;4.26;78.28;99007.41;4863396;29;20368;-74
2023/10/30 13:00:20;;;;;;;;;;;;;;;4.17;77.27;98991.94;4864168;29;20356;-74
2023/10/30 13:02:46;;;;;;;;;;;;;;;4.09;77.62;98989.31;4845521;29;19924;-73
2023/10/30 13:05:12;;;;;;;;;;;;;;;4.07;78.28;98986.72;4867759;29;19951;-75
2023/10/30 13:07:40;;;;;;;;;;;;;;;4.05;78.23;98990.16;4874663;29;19924;-76
2023/10/30 13:10:06;;;;;;;;;;;;;;;4.03;78.48;98995.28;4868019;29;20793;-75
2023/10/30 13:12:35;;;;;;;;;;;;;;;4.07;78.64;98994.47;4843361;29;19936;-75
2023/10/30 13:15:08;;;;;;;;;;;;;;;4.17;78.34;99002.25;4876900;29;19924;-75
2023/10/30 13:17:44;;;;;;;;;;;;;;;4.29;78.10;99004.84;4864905;29;19923;-74
2023/10/30 13:20:15;;;;;;;;;;;;;;;4.39;78.49;99010.91;4848222;29;19947;-77
2023/10/30 13:22:42;;;;;;;;;;;;;;;4.57;77.90;99032.41;4848348;29;19924;-77
2023/10/30 13:25:18;;;;;;;;;;;;;;;4.67;77.82;99044.50;4865168;29;20015;-78
2023/10/30 13:27:47;;;;;;;;;;;;;;;4.72;78.30;99032.47;4880749;29;19928;-83